Thunder radar more information blitzortung!


Radar de pluja more information rain snow radar


Visita la nostra xarxa de llocs de meteo:

Template documentation
and downloads

And another site



No particular awareness of the weather is required.    There are no Weather-warnings

Pagina Historial Weather Underground text

Diari Resum January 15, 2018 Unitats:  Tant    Imperial   Mètric
« Previous Dia
SegĂźent Dia »
Diari Setmana Mensual Anual Personalitzada
  Maxima: Minima: Media:
Temperatura: TemperatureC °F /  -17.8 °C 2.9 °F /  -16.2 °C 7.4 °F /  -13.7 °C
Punt de rosada: DewpointC °F /  -17.8 °C -0.6 °F /  -18.1 °C 1.3 °F /  -17.1 °C
Humitat: Humidity % 60 % 65 %
Wind Speed: WindSpeedKMH mph /  0 km/h - 5.2 mph /  8.4 km/h
RĂ fegues de vent: WindSpeedGustKMH mph /  0 km/h - -
Vent:- - WSW
Pression baro: PressurehPa in /  0 hPa 1015.8 in /  34395 hPa -
Precipitacions: 0.0 in /  0 mm    
Historical Graphs
 
 
Dades de taula per January 15, 2018
Temps Temperatura Punt de rosada Pression baro Vent Wind Speed RĂ fegues de vent Humitat Rainfall Rate (Hourly)
TemperatureC °F /  -17.8 °C DewpointC °F /  -17.8 °C PressurehPa in /  0 hPa Calm     Humidity % HourlyPrecipMM in /  0 mm
00:10 8.7 °F /  -12.9 °C 1.6 °F /  -16.9 °C 1015.8 in /  34395 hPa WSW 5.8 mph /  9.3 km/h 5.8 mph /  9.3 km/h 61 % 0.0 in /  0 mm
00:21 8.7 °F /  -12.9 °C 1.6 °F /  -16.9 °C 1015.8 in /  34395 hPa WSW 5.8 mph /  9.3 km/h 5.8 mph /  9.3 km/h 61 % 0.0 in /  0 mm
00:30 8.7 °F /  -12.9 °C 1.6 °F /  -16.9 °C 1015.8 in /  34395 hPa WSW 5.8 mph /  9.3 km/h 5.8 mph /  9.3 km/h 61 % 0.0 in /  0 mm
00:59 8.7 °F /  -12.9 °C 1.6 °F /  -16.9 °C 1015.8 in /  34395 hPa WSW 5.8 mph /  9.3 km/h 5.8 mph /  9.3 km/h 61 % 0.0 in /  0 mm
01:18 8.7 °F /  -12.9 °C 1.6 °F /  -16.9 °C 1015.8 in /  34395 hPa WSW 5.8 mph /  9.3 km/h 5.8 mph /  9.3 km/h 61 % 0.0 in /  0 mm
01:29 8.7 °F /  -12.9 °C 1.6 °F /  -16.9 °C 1015.8 in /  34395 hPa WSW 5.8 mph /  9.3 km/h 5.8 mph /  9.3 km/h 61 % 0.0 in /  0 mm
01:34 8.7 °F /  -12.9 °C 1.6 °F /  -16.9 °C 1015.8 in /  34395 hPa WSW 5.8 mph /  9.3 km/h 5.8 mph /  9.3 km/h 61 % 0.0 in /  0 mm
01:40 8.7 °F /  -12.9 °C 1.6 °F /  -16.9 °C 1015.8 in /  34395 hPa WSW 5.8 mph /  9.3 km/h 5.8 mph /  9.3 km/h 61 % 0.0 in /  0 mm
01:49 8.7 °F /  -12.9 °C 1.6 °F /  -16.9 °C 1015.8 in /  34395 hPa WSW 5.8 mph /  9.3 km/h 5.8 mph /  9.3 km/h 61 % 0.0 in /  0 mm
01:55 8.7 °F /  -12.9 °C 1.6 °F /  -16.9 °C 1015.8 in /  34395 hPa WSW 5.8 mph /  9.3 km/h 5.8 mph /  9.3 km/h 61 % 0.0 in /  0 mm
02:02 8.7 °F /  -12.9 °C 1.6 °F /  -16.9 °C 1015.8 in /  34395 hPa WSW 5.8 mph /  9.3 km/h 5.8 mph /  9.3 km/h 61 % 0.0 in /  0 mm
02:14 8.7 °F /  -12.9 °C 1.6 °F /  -16.9 °C 1015.8 in /  34395 hPa WSW 5.8 mph /  9.3 km/h 5.8 mph /  9.3 km/h 61 % 0.0 in /  0 mm
02:23 8.7 °F /  -12.9 °C 1.6 °F /  -16.9 °C 1015.8 in /  34395 hPa WSW 5.8 mph /  9.3 km/h 5.8 mph /  9.3 km/h 61 % 0.0 in /  0 mm
02:34 8.7 °F /  -12.9 °C 1.6 °F /  -16.9 °C 1015.8 in /  34395 hPa WSW 5.8 mph /  9.3 km/h 5.8 mph /  9.3 km/h 61 % 0.0 in /  0 mm
02:53 8.7 °F /  -12.9 °C 1.6 °F /  -16.9 °C 1015.8 in /  34395 hPa WSW 5.8 mph /  9.3 km/h 5.8 mph /  9.3 km/h 61 % 0.0 in /  0 mm
03:16 8.7 °F /  -12.9 °C 1.6 °F /  -16.9 °C 1015.8 in /  34395 hPa WSW 5.8 mph /  9.3 km/h 5.8 mph /  9.3 km/h 61 % 0.0 in /  0 mm
03:45 8.7 °F /  -12.9 °C 1.6 °F /  -16.9 °C 1015.8 in /  34395 hPa WSW 5.8 mph /  9.3 km/h 5.8 mph /  9.3 km/h 61 % 0.0 in /  0 mm
03:57 8.7 °F /  -12.9 °C 1.6 °F /  -16.9 °C 1015.8 in /  34395 hPa WSW 5.8 mph /  9.3 km/h 5.8 mph /  9.3 km/h 61 % 0.0 in /  0 mm
04:03 8.7 °F /  -12.9 °C 1.6 °F /  -16.9 °C 1015.8 in /  34395 hPa WSW 5.8 mph /  9.3 km/h 5.8 mph /  9.3 km/h 61 % 0.0 in /  0 mm
04:46 8.7 °F /  -12.9 °C 1.6 °F /  -16.9 °C 1015.8 in /  34395 hPa WSW 5.8 mph /  9.3 km/h 5.8 mph /  9.3 km/h 61 % 0.0 in /  0 mm
04:53 8.7 °F /  -12.9 °C 1.6 °F /  -16.9 °C 1015.8 in /  34395 hPa WSW 5.8 mph /  9.3 km/h 5.8 mph /  9.3 km/h 61 % 0.0 in /  0 mm
04:58 8.7 °F /  -12.9 °C 1.6 °F /  -16.9 °C 1015.8 in /  34395 hPa WSW 5.8 mph /  9.3 km/h 5.8 mph /  9.3 km/h 61 % 0.0 in /  0 mm
05:07 8.7 °F /  -12.9 °C 1.6 °F /  -16.9 °C 1015.8 in /  34395 hPa WSW 5.8 mph /  9.3 km/h 5.8 mph /  9.3 km/h 61 % 0.0 in /  0 mm
05:13 8.7 °F /  -12.9 °C 1.6 °F /  -16.9 °C 1015.8 in /  34395 hPa WSW 5.8 mph /  9.3 km/h 5.8 mph /  9.3 km/h 61 % 0.0 in /  0 mm
05:50 8.7 °F /  -12.9 °C 1.6 °F /  -16.9 °C 1015.8 in /  34395 hPa WSW 5.8 mph /  9.3 km/h 5.8 mph /  9.3 km/h 61 % 0.0 in /  0 mm
06:09 8.7 °F /  -12.9 °C 1.6 °F /  -16.9 °C 1015.8 in /  34395 hPa WSW 5.8 mph /  9.3 km/h 5.8 mph /  9.3 km/h 61 % 0.0 in /  0 mm
06:19 8.7 °F /  -12.9 °C 1.6 °F /  -16.9 °C 1015.8 in /  34395 hPa WSW 5.8 mph /  9.3 km/h 5.8 mph /  9.3 km/h 61 % 0.0 in /  0 mm
06:32 8.7 °F /  -12.9 °C 1.6 °F /  -16.9 °C 1015.8 in /  34395 hPa WSW 5.8 mph /  9.3 km/h 5.8 mph /  9.3 km/h 61 % 0.0 in /  0 mm
06:46 8.7 °F /  -12.9 °C 1.6 °F /  -16.9 °C 1015.8 in /  34395 hPa WSW 5.8 mph /  9.3 km/h 5.8 mph /  9.3 km/h 61 % 0.0 in /  0 mm
07:08 8.7 °F /  -12.9 °C 1.6 °F /  -16.9 °C 1015.8 in /  34395 hPa WSW 5.8 mph /  9.3 km/h 5.8 mph /  9.3 km/h 61 % 0.0 in /  0 mm
07:14 8.7 °F /  -12.9 °C 1.6 °F /  -16.9 °C 1015.8 in /  34395 hPa WSW 5.8 mph /  9.3 km/h 5.8 mph /  9.3 km/h 61 % 0.0 in /  0 mm
07:29 8.7 °F /  -12.9 °C 1.6 °F /  -16.9 °C 1015.8 in /  34395 hPa WSW 5.8 mph /  9.3 km/h 5.8 mph /  9.3 km/h 61 % 0.0 in /  0 mm
07:35 8.7 °F /  -12.9 °C 1.6 °F /  -16.9 °C 1015.8 in /  34395 hPa WSW 5.8 mph /  9.3 km/h 5.8 mph /  9.3 km/h 61 % 0.0 in /  0 mm
07:41 8.7 °F /  -12.9 °C 1.6 °F /  -16.9 °C 1015.8 in /  34395 hPa WSW 5.8 mph /  9.3 km/h 5.8 mph /  9.3 km/h 61 % 0.0 in /  0 mm
07:48 8.7 °F /  -12.9 °C 1.6 °F /  -16.9 °C 1015.8 in /  34395 hPa WSW 5.8 mph /  9.3 km/h 5.8 mph /  9.3 km/h 61 % 0.0 in /  0 mm
08:04 3.0 °F /  -16.1 °C -0.4 °F /  -18 °C 1022.9 in /  34635.4 hPa West 5.6 mph /  9 km/h 5.6 mph /  9 km/h 78 % 0.0 in /  0 mm
08:11 3.0 °F /  -16.1 °C -0.4 °F /  -18 °C 1022.9 in /  34635.4 hPa WNW 2.3 mph /  3.7 km/h   78 % 0.0 in /  0 mm
08:20 3.0 °F /  -16.1 °C -0.4 °F /  -18 °C 1023.9 in /  34669.3 hPa NNE 3.7 mph /  6 km/h 3.7 mph /  6 km/h 78 % 0.0 in /  0 mm
08:30 2.9 °F /  -16.2 °C -0.6 °F /  -18.1 °C 1023.9 in /  34669.3 hPa WSW 3.7 mph /  6 km/h 3.7 mph /  6 km/h 78 % 0.0 in /  0 mm
08:36 3.0 °F /  -16.1 °C -0.4 °F /  -18 °C 1023.9 in /  34669.3 hPa Calm     78 % 0.0 in /  0 mm
08:42 3.3 °F /  -15.9 °C -0.2 °F /  -17.9 °C 1023.9 in /  34669.3 hPa WNW 3.7 mph /  6 km/h 3.7 mph /  6 km/h 78 % 0.0 in /  0 mm
08:50 3.6 °F /  -15.8 °C 0.1 °F /  -17.7 °C 1023.9 in /  34669.3 hPa WNW 3.2 mph /  5.1 km/h 6.4 mph /  10.3 km/h 78 % 0.0 in /  0 mm
08:55 3.9 °F /  -15.6 °C 0.4 °F /  -17.6 °C 1023.9 in /  34669.3 hPa WNW 1.6 mph /  2.6 km/h 4.8 mph /  7.7 km/h 78 % 0.0 in /  0 mm
09:00 4.2 °F /  -15.4 °C 0.7 °F /  -17.4 °C 1023.9 in /  34669.3 hPa Calm     78 % 0.0 in /  0 mm
09:06 4.4 °F /  -15.3 °C 0.9 °F /  -17.3 °C 1023.9 in /  34669.3 hPa WNW 1.9 mph /  3.1 km/h 1.9 mph /  3.1 km/h 78 % 0.0 in /  0 mm
09:11 4.4 °F /  -15.3 °C 0.7 °F /  -17.4 °C 1023.9 in /  34669.3 hPa West 3.7 mph /  6 km/h 3.7 mph /  6 km/h 77 % 0.0 in /  0 mm
09:18 4.7 °F /  -15.2 °C 1.0 °F /  -17.2 °C 1023.9 in /  34669.3 hPa NNW 1.9 mph /  3.1 km/h 1.9 mph /  3.1 km/h 77 % 0.0 in /  0 mm
09:34 5.8 °F /  -14.6 °C 1.9 °F /  -16.7 °C 1023.9 in /  34669.3 hPa Calm     76 % 0.0 in /  0 mm
09:43 6.2 °F /  -14.3 °C 2.1 °F /  -16.6 °C 1023.9 in /  34669.3 hPa NE 1.9 mph /  3.1 km/h 1.9 mph /  3.1 km/h 75 % 0.0 in /  0 mm
09:52 6.9 °F /  -13.9 °C 2.8 °F /  -16.2 °C 1023.9 in /  34669.3 hPa NNE 1.9 mph /  3.1 km/h   75 % 0.0 in /  0 mm
10:04 7.2 °F /  -13.8 °C 2.7 °F /  -16.3 °C 1023.9 in /  34669.3 hPa NNE 3.2 mph /  5.1 km/h   73 % 0.0 in /  0 mm
10:11 7.2 °F /  -13.8 °C 2.3 °F /  -16.5 °C 1023.9 in /  34669.3 hPa NNE 3.9 mph /  6.3 km/h 3.9 mph /  6.3 km/h 71 % 0.0 in /  0 mm
10:18 6.9 °F /  -13.9 °C 2.0 °F /  -16.7 °C 1024.9 in /  34703.1 hPa NNE 4.7 mph /  7.6 km/h 4.7 mph /  7.6 km/h 71 % 0.0 in /  0 mm
10:37 6.9 °F /  -13.9 °C 2.0 °F /  -16.7 °C 1024.9 in /  34703.1 hPa NNW 2.3 mph /  3.7 km/h 2.3 mph /  3.7 km/h 71 % 0.0 in /  0 mm
10:43 6.9 °F /  -13.9 °C 2.0 °F /  -16.7 °C 1024.9 in /  34703.1 hPa NNW 2.3 mph /  3.7 km/h 2.3 mph /  3.7 km/h 71 % 0.0 in /  0 mm
10:54 6.9 °F /  -13.9 °C 2.0 °F /  -16.7 °C 1024.9 in /  34703.1 hPa NNW 2.3 mph /  3.7 km/h 2.3 mph /  3.7 km/h 71 % 0.0 in /  0 mm
11:06 6.9 °F /  -13.9 °C 2.0 °F /  -16.7 °C 1024.9 in /  34703.1 hPa NNW 2.3 mph /  3.7 km/h 2.3 mph /  3.7 km/h 71 % 0.0 in /  0 mm
11:14 6.9 °F /  -13.9 °C 2.0 °F /  -16.7 °C 1024.9 in /  34703.1 hPa NNW 2.3 mph /  3.7 km/h 2.3 mph /  3.7 km/h 71 % 0.0 in /  0 mm
11:35 7.6 °F /  -13.6 °C 1.8 °F /  -16.8 °C 1026.0 in /  34740.4 hPa NNE 7.4 mph /  11.9 km/h 7.4 mph /  11.9 km/h 67 % 0.0 in /  0 mm
12:04 8.2 °F /  -13.2 °C 2.4 °F /  -16.4 °C 1026.0 in /  34740.4 hPa NE 6.9 mph /  11.1 km/h 6.9 mph /  11.1 km/h 67 % 0.0 in /  0 mm
12:26 8.8 °F /  -12.9 °C 2.8 °F /  -16.2 °C 1026.0 in /  34740.4 hPa North 7.4 mph /  11.9 km/h 7.4 mph /  11.9 km/h 66 % 0.0 in /  0 mm
12:34 9.2 °F /  -12.7 °C 3.2 °F /  -16 °C 1026.0 in /  34740.4 hPa WNW 3.7 mph /  6 km/h 3.7 mph /  6 km/h 66 % 0.0 in /  0 mm
12:44 9.2 °F /  -12.7 °C 2.9 °F /  -16.2 °C 1026.0 in /  34740.4 hPa East 5.3 mph /  8.5 km/h 5.3 mph /  8.5 km/h 65 % 0.0 in /  0 mm
13:02 9.2 °F /  -12.7 °C 2.9 °F /  -16.2 °C 1026.0 in /  34740.4 hPa WNW 3.7 mph /  6 km/h 3.7 mph /  6 km/h 65 % 0.0 in /  0 mm
13:22 9.3 °F /  -12.6 °C 2.6 °F /  -16.3 °C 1026.0 in /  34740.4 hPa NNE 7.4 mph /  11.9 km/h 7.4 mph /  11.9 km/h 63 % 0.0 in /  0 mm
13:56 8.5 °F /  -13.1 °C 1.8 °F /  -16.8 °C 1024.9 in /  34703.1 hPa NNE 9.3 mph /  15 km/h 9.3 mph /  15 km/h 63 % 0.0 in /  0 mm
14:15 8.6 °F /  -13 °C 1.9 °F /  -16.7 °C 1023.9 in /  34669.3 hPa NE 3.2 mph /  5.1 km/h 8.0 mph /  12.9 km/h 63 % 0.0 in /  0 mm
14:27 8.8 °F /  -12.9 °C 2.1 °F /  -16.6 °C 1023.9 in /  34669.3 hPa NW 3.7 mph /  6 km/h 3.7 mph /  6 km/h 63 % 0.0 in /  0 mm
14:44 9.9 °F /  -12.3 °C 2.9 °F /  -16.2 °C 1023.9 in /  34669.3 hPa SW 5.6 mph /  9 km/h 5.6 mph /  9 km/h 62 % 0.0 in /  0 mm
14:51 10.1 °F /  -12.2 °C 3.2 °F /  -16 °C 1024.9 in /  34703.1 hPa West 9.3 mph /  15 km/h 9.3 mph /  15 km/h 62 % 0.0 in /  0 mm
14:57 10.1 °F /  -12.2 °C 3.2 °F /  -16 °C 1024.9 in /  34703.1 hPa NW 9.3 mph /  15 km/h 9.3 mph /  15 km/h 62 % 0.0 in /  0 mm
15:02 9.9 °F /  -12.3 °C 2.7 °F /  -16.3 °C 1024.9 in /  34703.1 hPa WSW 13.0 mph /  20.9 km/h 13.0 mph /  20.9 km/h 61 % 0.0 in /  0 mm
15:08 9.8 °F /  -12.3 °C 2.4 °F /  -16.4 °C 1022.9 in /  34635.4 hPa WSW 16.7 mph /  26.9 km/h 16.7 mph /  26.9 km/h 60 % 0.0 in /  0 mm
15:19 9.4 °F /  -12.6 °C 2.0 °F /  -16.7 °C 1023.9 in /  34669.3 hPa NW 7.4 mph /  11.9 km/h 7.4 mph /  11.9 km/h 60 % 0.0 in /  0 mm
15:26 9.4 °F /  -12.6 °C 2.0 °F /  -16.7 °C 1023.9 in /  34669.3 hPa WSW 16.7 mph /  26.9 km/h 16.7 mph /  26.9 km/h 60 % 0.0 in /  0 mm
15:43 9.2 °F /  -12.7 °C 1.8 °F /  -16.8 °C 1023.9 in /  34669.3 hPa WSW 13.0 mph /  20.9 km/h 13.0 mph /  20.9 km/h 60 % 0.0 in /  0 mm
15:49 9.2 °F /  -12.7 °C 1.8 °F /  -16.8 °C 1023.9 in /  34669.3 hPa West 7.4 mph /  11.9 km/h 7.4 mph /  11.9 km/h 60 % 0.0 in /  0 mm
15:56 9.1 °F /  -12.7 °C 1.7 °F /  -16.8 °C 1023.9 in /  34669.3 hPa NW 7.4 mph /  11.9 km/h 7.4 mph /  11.9 km/h 60 % 0.0 in /  0 mm
16:04 9.0 °F /  -12.8 °C 1.7 °F /  -16.8 °C 1023.9 in /  34669.3 hPa WNW 9.3 mph /  15 km/h 9.3 mph /  15 km/h 60 % 0.0 in /  0 mm
16:32 8.6 °F /  -13 °C 1.5 °F /  -16.9 °C 1023.9 in /  34669.3 hPa SW 7.9 mph /  12.7 km/h 7.9 mph /  12.7 km/h 61 % 0.0 in /  0 mm
16:44 8.3 °F /  -13.2 °C 1.2 °F /  -17.1 °C 1023.9 in /  34669.3 hPa WSW 7.4 mph /  11.9 km/h 7.4 mph /  11.9 km/h 61 % 0.0 in /  0 mm
17:00 8.1 °F /  -13.3 °C 1.0 °F /  -17.2 °C 1023.9 in /  34669.3 hPa WSW 7.4 mph /  11.9 km/h 7.4 mph /  11.9 km/h 61 % 0.0 in /  0 mm
17:24 7.5 °F /  -13.6 °C 0.7 °F /  -17.4 °C 1022.9 in /  34635.4 hPa SW 9.3 mph /  15 km/h 9.3 mph /  15 km/h 62 % 0.0 in /  0 mm
18:14 6.9 °F /  -13.9 °C 0.3 °F /  -17.6 °C 1023.9 in /  34669.3 hPa NNW 1.9 mph /  3.1 km/h   63 % 0.0 in /  0 mm
18:20 6.8 °F /  -14 °C 0.2 °F /  -17.7 °C 1023.9 in /  34669.3 hPa WNW 2.3 mph /  3.7 km/h 2.3 mph /  3.7 km/h 63 % 0.0 in /  0 mm
18:26 6.7 °F /  -14.1 °C 0.2 °F /  -17.7 °C 1023.9 in /  34669.3 hPa Calm     63 % 0.0 in /  0 mm
18:34 6.7 °F /  -14.1 °C 0.4 °F /  -17.6 °C 1022.9 in /  34635.4 hPa SW 3.7 mph /  6 km/h 3.7 mph /  6 km/h 64 % 0.0 in /  0 mm
18:45 6.5 °F /  -14.2 °C 0.2 °F /  -17.7 °C 1022.9 in /  34635.4 hPa WSW 7.4 mph /  11.9 km/h 7.4 mph /  11.9 km/h 64 % 0.0 in /  0 mm
18:53 6.4 °F /  -14.2 °C 0.1 °F /  -17.7 °C 1022.9 in /  34635.4 hPa SW 3.7 mph /  6 km/h 3.7 mph /  6 km/h 64 % 0.0 in /  0 mm
19:00 6.3 °F /  -14.3 °C 0.2 °F /  -17.7 °C 1022.9 in /  34635.4 hPa WSW 3.7 mph /  6 km/h 3.7 mph /  6 km/h 65 % 0.0 in /  0 mm
19:19 6.0 °F /  -14.4 °C -0.1 °F /  -17.8 °C 1022.9 in /  34635.4 hPa SW 7.4 mph /  11.9 km/h 7.4 mph /  11.9 km/h 65 % 0.0 in /  0 mm
19:32 6.1 °F /  -14.4 °C 0.2 °F /  -17.7 °C 1022.9 in /  34635.4 hPa WSW 3.7 mph /  6 km/h 3.7 mph /  6 km/h 66 % 0.0 in /  0 mm
19:50 6.4 °F /  -14.2 °C 0.5 °F /  -17.5 °C 1022.9 in /  34635.4 hPa WSW 3.2 mph /  5.1 km/h 6.4 mph /  10.3 km/h 66 % 0.0 in /  0 mm
19:55 6.9 °F /  -13.9 °C 0.6 °F /  -17.4 °C 1021.9 in /  34601.5 hPa WSW 3.2 mph /  5.1 km/h 4.8 mph /  7.7 km/h 64 % 0.0 in /  0 mm
20:05 6.8 °F /  -14 °C 0.4 °F /  -17.6 °C 1021.9 in /  34601.5 hPa West 4.8 mph /  7.7 km/h 4.8 mph /  7.7 km/h 64 % 0.0 in /  0 mm
20:06 6.9 °F /  -13.9 °C 1.0 °F /  -17.2 °C 1022.9 in /  34635.4 hPa SW 7.4 mph /  11.9 km/h 7.4 mph /  11.9 km/h 66 % 0.0 in /  0 mm
20:25 6.6 °F /  -14.1 °C 0.3 °F /  -17.6 °C 1021.9 in /  34601.5 hPa WNW 1.6 mph /  2.6 km/h 3.2 mph /  5.1 km/h 64 % 0.0 in /  0 mm
20:28 7.0 °F /  -13.9 °C 1.1 °F /  -17.2 °C 1023.9 in /  34669.3 hPa WNW 7.4 mph /  11.9 km/h 7.4 mph /  11.9 km/h 66 % 0.0 in /  0 mm
20:35 6.6 °F /  -14.1 °C 0.3 °F /  -17.6 °C 1021.9 in /  34601.5 hPa WNW 3.2 mph /  5.1 km/h 3.2 mph /  5.1 km/h 64 % 0.0 in /  0 mm
20:45 6.8 °F /  -14 °C 0.4 °F /  -17.6 °C 1021.9 in /  34601.5 hPa West 1.6 mph /  2.6 km/h 6.4 mph /  10.3 km/h 64 % 0.0 in /  0 mm
20:55 6.9 °F /  -13.9 °C 0.6 °F /  -17.4 °C 1021.9 in /  34601.5 hPa West 1.6 mph /  2.6 km/h 4.8 mph /  7.7 km/h 64 % 0.0 in /  0 mm
20:57 7.1 °F /  -13.8 °C 1.2 °F /  -17.1 °C 1022.9 in /  34635.4 hPa West 5.8 mph /  9.3 km/h 5.8 mph /  9.3 km/h 66 % 0.0 in /  0 mm
21:03 7.1 °F /  -13.8 °C 1.2 °F /  -17.1 °C 1022.9 in /  34635.4 hPa WNW 5.6 mph /  9 km/h 5.6 mph /  9 km/h 66 % 0.0 in /  0 mm
21:05 6.9 °F /  -13.9 °C 0.6 °F /  -17.4 °C 1021.9 in /  34601.5 hPa WSW 3.2 mph /  5.1 km/h 4.8 mph /  7.7 km/h 64 % 0.0 in /  0 mm
21:09 7.1 °F /  -13.8 °C 1.2 °F /  -17.1 °C 1022.9 in /  34635.4 hPa West 3.7 mph /  6 km/h 3.7 mph /  6 km/h 66 % 0.0 in /  0 mm
21:15 6.9 °F /  -13.9 °C 0.3 °F /  -17.6 °C 1021.9 in /  34601.5 hPa WSW 1.6 mph /  2.6 km/h 4.8 mph /  7.7 km/h 63 % 0.0 in /  0 mm
21:20 7.2 °F /  -13.8 °C 1.5 °F /  -16.9 °C 1023.9 in /  34669.3 hPa WNW 3.7 mph /  6 km/h 3.7 mph /  6 km/h 67 % 0.0 in /  0 mm
21:25 6.9 °F /  -13.9 °C 0.3 °F /  -17.6 °C 1020.9 in /  34567.7 hPa WSW 3.2 mph /  5.1 km/h 3.2 mph /  5.1 km/h 63 % 0.0 in /  0 mm
21:26 7.2 °F /  -13.8 °C 1.5 °F /  -16.9 °C 1023.9 in /  34669.3 hPa WNW 3.7 mph /  6 km/h 3.7 mph /  6 km/h 67 % 0.0 in /  0 mm
21:32 7.2 °F /  -13.8 °C 1.5 °F /  -16.9 °C 1023.9 in /  34669.3 hPa West 5.6 mph /  9 km/h 5.6 mph /  9 km/h 67 % 0.0 in /  0 mm
21:35 6.9 °F /  -13.9 °C 0.3 °F /  -17.6 °C 1020.9 in /  34567.7 hPa WSW 3.2 mph /  5.1 km/h 6.4 mph /  10.3 km/h 63 % 0.0 in /  0 mm
21:37 7.2 °F /  -13.8 °C 1.5 °F /  -16.9 °C 1022.9 in /  34635.4 hPa NW 5.6 mph /  9 km/h 5.6 mph /  9 km/h 67 % 0.0 in /  0 mm
21:45 7.0 °F /  -13.9 °C 0.4 °F /  -17.6 °C 1020.9 in /  34567.7 hPa WSW 8.0 mph /  12.9 km/h 8.0 mph /  12.9 km/h 63 % 0.0 in /  0 mm
21:46 7.2 °F /  -13.8 °C 1.5 °F /  -16.9 °C 1022.9 in /  34635.4 hPa WSW 5.6 mph /  9 km/h 5.6 mph /  9 km/h 67 % 0.0 in /  0 mm
21:47 7.2 °F /  -13.8 °C 1.5 °F /  -16.9 °C 1022.9 in /  34635.4 hPa West 5.6 mph /  9 km/h 5.6 mph /  9 km/h 67 % 0.0 in /  0 mm
21:48 7.2 °F /  -13.8 °C 1.5 °F /  -16.9 °C 1022.9 in /  34635.4 hPa WNW 6.1 mph /  9.8 km/h 6.1 mph /  9.8 km/h 67 % 0.0 in /  0 mm
21:49 7.2 °F /  -13.8 °C 1.5 °F /  -16.9 °C 1023.9 in /  34669.3 hPa NW 9.3 mph /  15 km/h 9.3 mph /  15 km/h 67 % 0.0 in /  0 mm
21:50 7.2 °F /  -13.8 °C 1.5 °F /  -16.9 °C 1023.9 in /  34669.3 hPa WSW 5.6 mph /  9 km/h 5.6 mph /  9 km/h 67 % 0.0 in /  0 mm
21:51 7.2 °F /  -13.8 °C 1.5 °F /  -16.9 °C 1023.9 in /  34669.3 hPa WSW 7.4 mph /  11.9 km/h 7.4 mph /  11.9 km/h 67 % 0.0 in /  0 mm
21:55 7.0 °F /  -13.9 °C 0.4 °F /  -17.6 °C 1020.9 in /  34567.7 hPa WSW 4.8 mph /  7.7 km/h 8.0 mph /  12.9 km/h 63 % 0.0 in /  0 mm
22:00 7.3 °F /  -13.7 °C 1.6 °F /  -16.9 °C 1023.9 in /  34669.3 hPa WSW 3.7 mph /  6 km/h 4.2 mph /  6.8 km/h 67 % 0.0 in /  0 mm
22:02 7.2 °F /  -13.8 °C 1.5 °F /  -16.9 °C 1023.9 in /  34669.3 hPa SW 7.4 mph /  11.9 km/h 7.4 mph /  11.9 km/h 67 % 0.0 in /  0 mm
22:05 7.1 °F /  -13.8 °C 1.4 °F /  -17 °C 1022.9 in /  34635.4 hPa SW 3.7 mph /  6 km/h 3.7 mph /  6 km/h 67 % 0.0 in /  0 mm
22:07 7.0 °F /  -13.9 °C 1.3 °F /  -17.1 °C 1022.9 in /  34635.4 hPa WSW 3.7 mph /  6 km/h 3.7 mph /  6 km/h 67 % 0.0 in /  0 mm
22:15 7.2 °F /  -13.8 °C 0.6 °F /  -17.4 °C 1020.9 in /  34567.7 hPa WSW 4.8 mph /  7.7 km/h 6.4 mph /  10.3 km/h 63 % 0.0 in /  0 mm
22:25 7.2 °F /  -13.8 °C 0.4 °F /  -17.6 °C 1020.9 in /  34567.7 hPa WSW 4.8 mph /  7.7 km/h 9.7 mph /  15.6 km/h 62 % 0.0 in /  0 mm
22:35 7.3 °F /  -13.7 °C 0.5 °F /  -17.5 °C 1019.9 in /  34533.8 hPa SW 4.8 mph /  7.7 km/h 6.4 mph /  10.3 km/h 62 % 0.0 in /  0 mm
22:36 7.0 °F /  -13.9 °C 1.3 °F /  -17.1 °C 1023.9 in /  34669.3 hPa NW 4.7 mph /  7.6 km/h   67 % 0.0 in /  0 mm
22:42 7.0 °F /  -13.9 °C 1.3 °F /  -17.1 °C 1023.9 in /  34669.3 hPa WNW 3.7 mph /  6 km/h 3.7 mph /  6 km/h 67 % 0.0 in /  0 mm
22:45 7.2 °F /  -13.8 °C 0.4 °F /  -17.6 °C 1019.9 in /  34533.8 hPa WSW 4.8 mph /  7.7 km/h 6.4 mph /  10.3 km/h 62 % 0.0 in /  0 mm
22:55 7.2 °F /  -13.8 °C 0.4 °F /  -17.6 °C 1019.9 in /  34533.8 hPa WSW 4.8 mph /  7.7 km/h 9.7 mph /  15.6 km/h 62 % 0.0 in /  0 mm
23:01 7.1 °F /  -13.8 °C 1.4 °F /  -17 °C 1022.9 in /  34635.4 hPa WNW 7.4 mph /  11.9 km/h 7.4 mph /  11.9 km/h 67 % 0.0 in /  0 mm
23:05 7.1 °F /  -13.8 °C 0.1 °F /  -17.7 °C 1019.9 in /  34533.8 hPa SW 8.0 mph /  12.9 km/h 8.0 mph /  12.9 km/h 61 % 0.0 in /  0 mm
23:15 7.1 °F /  -13.8 °C 0.1 °F /  -17.7 °C 1019.9 in /  34533.8 hPa WSW 4.8 mph /  7.7 km/h 9.7 mph /  15.6 km/h 61 % 0.0 in /  0 mm
23:20 7.0 °F /  -13.9 °C 1.1 °F /  -17.2 °C 1022.9 in /  34635.4 hPa West 3.7 mph /  6 km/h 3.7 mph /  6 km/h 66 % 0.0 in /  0 mm
23:25 6.9 °F /  -13.9 °C -0.1 °F /  -17.8 °C 1019.9 in /  34533.8 hPa WSW 4.8 mph /  7.7 km/h 9.7 mph /  15.6 km/h 61 % 0.0 in /  0 mm
23:38 6.9 °F /  -13.9 °C 1.0 °F /  -17.2 °C 1023.9 in /  34669.3 hPa WNW 3.7 mph /  6 km/h 3.7 mph /  6 km/h 66 % 0.0 in /  0 mm
23:44 7.0 °F /  -13.9 °C 1.1 °F /  -17.2 °C 1023.9 in /  34669.3 hPa SW 5.6 mph /  9 km/h 5.6 mph /  9 km/h 66 % 0.0 in /  0 mm
23:45 6.9 °F /  -13.9 °C -0.1 °F /  -17.8 °C 1019.9 in /  34533.8 hPa SW 8.0 mph /  12.9 km/h 8.0 mph /  12.9 km/h 61 % 0.0 in /  0 mm
Meteo Sesrovires
Elogis d' Weather Underground - 1.25 mb

Guio original per  Jim McMurry - jmcmurry@mwt.net Adaptat per a la plantilla per  Wim van der Kuil - Leuven-Template.eu

Trobareu la nostra informacio del temps tambe a:

Weather Underground

AWEKAS